sensor_id;sensor_type;location;lat;lon;timestamp;pressure;altitude;pressure_sealevel;temperature;humidity
29535;BME280;72082;52.650;8.116;2023-08-12T00:01:48;101372.28;;;22.56;75.90
29535;BME280;72082;52.650;8.116;2023-08-12T00:04:13;101376.50;;;22.60;76.20
29535;BME280;72082;52.650;8.116;2023-08-12T00:06:38;101382.88;;;22.53;76.31
29535;BME280;72082;52.650;8.116;2023-08-12T00:09:04;101386.00;;;22.41;76.82
29535;BME280;72082;52.650;8.116;2023-08-12T00:11:29;101387.22;;;22.32;77.25
29535;BME280;72082;52.650;8.116;2023-08-12T00:13:54;101390.88;;;22.28;77.65
29535;BME280;72082;52.650;8.116;2023-08-12T00:16:19;101397.09;;;22.26;77.61
29535;BME280;72082;52.650;8.116;2023-08-12T00:18:44;101397.22;;;22.23;77.76
29535;BME280;72082;52.650;8.116;2023-08-12T00:21:10;101398.84;;;22.25;77.45
29535;BME280;72082;52.650;8.116;2023-08-12T00:23:38;101398.78;;;22.27;77.54
29535;BME280;72082;52.650;8.116;2023-08-12T00:26:03;101404.19;;;22.22;77.70
29535;BME280;72082;52.650;8.116;2023-08-12T00:28:28;101406.25;;;22.14;77.93
29535;BME280;72082;52.650;8.116;2023-08-12T00:30:53;101403.38;;;22.00;78.37
29535;BME280;72082;52.650;8.116;2023-08-12T00:33:18;101409.00;;;21.89;78.74
29535;BME280;72082;52.650;8.116;2023-08-12T00:35:44;101409.13;;;21.85;79.15
29535;BME280;72082;52.650;8.116;2023-08-12T00:38:09;101416.38;;;21.78;79.36
29535;BME280;72082;52.650;8.116;2023-08-12T00:40:34;101419.19;;;21.72;79.53
29535;BME280;72082;52.650;8.116;2023-08-12T00:42:59;101428.06;;;21.68;79.66
29535;BME280;72082;52.650;8.116;2023-08-12T00:45:25;101422.09;;;21.65;79.63
29535;BME280;72082;52.650;8.116;2023-08-12T00:47:50;101420.41;;;21.64;79.86
29535;BME280;72082;52.650;8.116;2023-08-12T00:50:15;101419.69;;;21.60;79.91
29535;BME280;72082;52.650;8.116;2023-08-12T00:52:40;101419.75;;;21.59;80.14
29535;BME280;72082;52.650;8.116;2023-08-12T00:55:06;101416.16;;;21.61;80.07
29535;BME280;72082;52.650;8.116;2023-08-12T00:57:32;101402.09;;;21.65;79.87
29535;BME280;72082;52.650;8.116;2023-08-12T00:59:57;101407.09;;;21.71;79.93
29535;BME280;72082;52.650;8.116;2023-08-12T01:02:22;101402.53;;;21.76;79.37
29535;BME280;72082;52.650;8.116;2023-08-12T01:04:47;101391.06;;;21.80;79.83
29535;BME280;72082;52.650;8.116;2023-08-12T01:07:13;101385.72;;;21.83;79.58
29535;BME280;72082;52.650;8.116;2023-08-12T01:09:38;101375.19;;;21.86;79.49
29535;BME280;72082;52.650;8.116;2023-08-12T01:12:12;101373.44;;;21.85;79.97
29535;BME280;72082;52.650;8.116;2023-08-12T01:14:47;101364.25;;;21.77;80.38
29535;BME280;72082;52.650;8.116;2023-08-12T01:17:17;101371.34;;;21.73;80.70
29535;BME280;72082;52.650;8.116;2023-08-12T01:19:43;101362.72;;;21.71;80.87
29535;BME280;72082;52.650;8.116;2023-08-12T01:22:10;101363.75;;;21.67;81.19
29535;BME280;72082;52.650;8.116;2023-08-12T01:24:40;101363.06;;;21.62;81.56
29535;BME280;72082;52.650;8.116;2023-08-12T01:27:06;101367.56;;;21.59;81.63
29535;BME280;72082;52.650;8.116;2023-08-12T01:29:33;101363.31;;;21.56;81.98
29535;BME280;72082;52.650;8.116;2023-08-12T01:32:22;101351.97;;;21.57;82.39
29535;BME280;72082;52.650;8.116;2023-08-12T01:34:54;101358.16;;;21.54;82.23
29535;BME280;72082;52.650;8.116;2023-08-12T01:37:28;101344.25;;;21.54;82.43
29535;BME280;72082;52.650;8.116;2023-08-12T01:39:54;101333.81;;;21.54;82.45
29535;BME280;72082;52.650;8.116;2023-08-12T01:42:20;101344.13;;;21.57;82.32
29535;BME280;72082;52.650;8.116;2023-08-12T01:44:46;101337.16;;;21.58;82.54
29535;BME280;72082;52.650;8.116;2023-08-12T01:47:11;101338.03;;;21.58;82.67
29535;BME280;72082;52.650;8.116;2023-08-12T01:49:37;101337.25;;;21.56;82.87
29535;BME280;72082;52.650;8.116;2023-08-12T01:52:02;101341.75;;;21.51;83.08
29535;BME280;72082;52.650;8.116;2023-08-12T01:54:28;101338.38;;;21.49;83.27
29535;BME280;72082;52.650;8.116;2023-08-12T01:56:53;101337.47;;;21.50;83.48
29535;BME280;72082;52.650;8.116;2023-08-12T01:59:18;101328.59;;;21.54;83.25
29535;BME280;72082;52.650;8.116;2023-08-12T02:01:43;101322.25;;;21.61;83.16
29535;BME280;72082;52.650;8.116;2023-08-12T02:04:08;101311.63;;;21.66;82.92
29535;BME280;72082;52.650;8.116;2023-08-12T02:06:34;101319.25;;;21.70;83.01
29535;BME280;72082;52.650;8.116;2023-08-12T02:08:59;101301.91;;;21.69;83.29
29535;BME280;72082;52.650;8.116;2023-08-12T02:11:24;101309.72;;;21.69;84.18
29535;BME280;72082;52.650;8.116;2023-08-12T02:13:49;101316.84;;;21.66;83.70
29535;BME280;72082;52.650;8.116;2023-08-12T02:16:14;101322.38;;;21.58;84.34
29535;BME280;72082;52.650;8.116;2023-08-12T02:18:40;101313.13;;;21.49;84.60
29535;BME280;72082;52.650;8.116;2023-08-12T02:21:05;101315.06;;;21.44;84.97
29535;BME280;72082;52.650;8.116;2023-08-12T02:23:30;101309.13;;;21.41;85.11
29535;BME280;72082;52.650;8.116;2023-08-12T02:25:55;101314.59;;;21.35;85.49
29535;BME280;72082;52.650;8.116;2023-08-12T02:28:20;101307.84;;;21.29;86.00
29535;BME280;72082;52.650;8.116;2023-08-12T02:30:46;101307.06;;;21.27;85.99
29535;BME280;72082;52.650;8.116;2023-08-12T02:33:11;101299.25;;;21.27;85.59
29535;BME280;72082;52.650;8.116;2023-08-12T02:35:36;101304.38;;;21.29;85.96
29535;BME280;72082;52.650;8.116;2023-08-12T02:38:01;101300.88;;;21.30;85.97
29535;BME280;72082;52.650;8.116;2023-08-12T02:40:27;101286.81;;;21.34;85.80
29535;BME280;72082;52.650;8.116;2023-08-12T02:42:52;101291.25;;;21.32;86.03
29535;BME280;72082;52.650;8.116;2023-08-12T02:45:17;101293.28;;;21.24;86.31
29535;BME280;72082;52.650;8.116;2023-08-12T02:47:42;101294.28;;;21.20;86.43
29535;BME280;72082;52.650;8.116;2023-08-12T02:50:08;101278.81;;;21.17;86.79
29535;BME280;72082;52.650;8.116;2023-08-12T02:52:33;101279.75;;;21.14;87.11
29535;BME280;72082;52.650;8.116;2023-08-12T02:54:58;101278.16;;;21.10;86.74
29535;BME280;72082;52.650;8.116;2023-08-12T02:57:24;101274.94;;;21.04;87.34
29535;BME280;72082;52.650;8.116;2023-08-12T02:59:49;101275.16;;;20.98;87.87
29535;BME280;72082;52.650;8.116;2023-08-12T03:02:14;101278.94;;;20.89;88.32
29535;BME280;72082;52.650;8.116;2023-08-12T03:04:39;101273.91;;;20.84;88.54
29535;BME280;72082;52.650;8.116;2023-08-12T03:07:04;101266.94;;;20.85;88.61
29535;BME280;72082;52.650;8.116;2023-08-12T03:09:30;101270.50;;;20.82;88.50
29535;BME280;72082;52.650;8.116;2023-08-12T03:11:55;101279.28;;;20.80;88.81
29535;BME280;72082;52.650;8.116;2023-08-12T03:14:20;101278.53;;;20.76;88.76
29535;BME280;72082;52.650;8.116;2023-08-12T03:16:45;101282.97;;;20.74;89.23
29535;BME280;72082;52.650;8.116;2023-08-12T03:19:11;101279.50;;;20.74;89.18
29535;BME280;72082;52.650;8.116;2023-08-12T03:21:36;101283.81;;;20.75;89.16
29535;BME280;72082;52.650;8.116;2023-08-12T03:24:01;101278.53;;;20.76;89.19
29535;BME280;72082;52.650;8.116;2023-08-12T03:26:26;101270.72;;;20.76;89.05
29535;BME280;72082;52.650;8.116;2023-08-12T03:28:51;101280.19;;;20.79;89.08
29535;BME280;72082;52.650;8.116;2023-08-12T03:31:17;101283.63;;;20.79;89.38
29535;BME280;72082;52.650;8.116;2023-08-12T03:33:42;101273.31;;;20.76;89.61
29535;BME280;72082;52.650;8.116;2023-08-12T03:36:07;101272.47;;;20.76;89.84
29535;BME280;72082;52.650;8.116;2023-08-12T03:38:32;101275.94;;;20.76;89.66
29535;BME280;72082;52.650;8.116;2023-08-12T03:40:57;101269.06;;;20.74;89.87
29535;BME280;72082;52.650;8.116;2023-08-12T03:43:23;101273.78;;;20.64;90.38
29535;BME280;72082;52.650;8.116;2023-08-12T03:45:48;101274.16;;;20.54;91.02
29535;BME280;72082;52.650;8.116;2023-08-12T03:48:13;101262.31;;;20.45;91.36
29535;BME280;72082;52.650;8.116;2023-08-12T03:50:40;101252.06;;;20.41;91.81
29535;BME280;72082;52.650;8.116;2023-08-12T03:53:06;101252.25;;;20.36;91.76
29535;BME280;72082;52.650;8.116;2023-08-12T03:55:32;101245.44;;;20.32;92.77
29535;BME280;72082;52.650;8.116;2023-08-12T03:57:58;101249.84;;;20.30;92.46
29535;BME280;72082;52.650;8.116;2023-08-12T04:00:23;101255.06;;;20.30;92.43
29535;BME280;72082;52.650;8.116;2023-08-12T04:02:49;101246.31;;;20.31;92.20
29535;BME280;72082;52.650;8.116;2023-08-12T04:05:14;101241.94;;;20.33;92.33
29535;BME280;72082;52.650;8.116;2023-08-12T04:07:39;101248.81;;;20.34;92.52
29535;BME280;72082;52.650;8.116;2023-08-12T04:10:05;101238.41;;;20.34;92.23
29535;BME280;72082;52.650;8.116;2023-08-12T04:12:30;101244.28;;;20.39;92.39
29535;BME280;72082;52.650;8.116;2023-08-12T04:14:55;101238.03;;;20.45;92.24
29535;BME280;72082;52.650;8.116;2023-08-12T04:17:20;101243.06;;;20.49;91.83
29535;BME280;72082;52.650;8.116;2023-08-12T04:19:46;101243.78;;;20.54;92.00
29535;BME280;72082;52.650;8.116;2023-08-12T04:22:11;101242.91;;;20.54;91.94
29535;BME280;72082;52.650;8.116;2023-08-12T04:24:36;101243.91;;;20.50;92.20
29535;BME280;72082;52.650;8.116;2023-08-12T04:27:01;101248.50;;;20.43;92.65
29535;BME280;72082;52.650;8.116;2023-08-12T04:29:27;101248.72;;;20.37;93.05
29535;BME280;72082;52.650;8.116;2023-08-12T04:31:52;101264.41;;;20.36;93.43
29535;BME280;72082;52.650;8.116;2023-08-12T04:34:17;101261.94;;;20.31;93.56
29535;BME280;72082;52.650;8.116;2023-08-12T04:36:42;101262.06;;;20.28;93.70
29535;BME280;72082;52.650;8.116;2023-08-12T04:39:07;101261.25;;;20.26;93.67
29535;BME280;72082;52.650;8.116;2023-08-12T04:41:33;101259.59;;;20.23;93.87
29535;BME280;72082;52.650;8.116;2023-08-12T04:43:58;101259.56;;;20.25;93.95
29535;BME280;72082;52.650;8.116;2023-08-12T04:46:23;101254.25;;;20.28;93.94
29535;BME280;72082;52.650;8.116;2023-08-12T04:48:48;101251.53;;;20.31;93.60
29535;BME280;72082;52.650;8.116;2023-08-12T04:51:14;101243.63;;;20.34;93.76
29535;BME280;72082;52.650;8.116;2023-08-12T04:53:39;101248.63;;;20.40;93.80
29535;BME280;72082;52.650;8.116;2023-08-12T04:56:04;101243.22;;;20.45;93.58
29535;BME280;72082;52.650;8.116;2023-08-12T04:58:29;101231.84;;;20.47;93.70
29535;BME280;72082;52.650;8.116;2023-08-12T05:00:54;101232.66;;;20.49;93.63
29535;BME280;72082;52.650;8.116;2023-08-12T05:03:20;101228.25;;;20.51;93.29
29535;BME280;72082;52.650;8.116;2023-08-12T05:05:52;101227.28;;;20.54;93.67
29535;BME280;72082;52.650;8.116;2023-08-12T05:08:19;101230.63;;;20.57;93.66
29535;BME280;72082;52.650;8.116;2023-08-12T05:10:47;101227.88;;;20.62;93.63
29535;BME280;72082;52.650;8.116;2023-08-12T05:13:12;101238.88;;;20.68;93.56
29535;BME280;72082;52.650;8.116;2023-08-12T05:15:37;101225.66;;;20.74;92.96
29535;BME280;72082;52.650;8.116;2023-08-12T05:18:03;101225.25;;;20.85;93.03
29535;BME280;72082;52.650;8.116;2023-08-12T05:20:28;101225.75;;;20.94;93.05
29535;BME280;72082;52.650;8.116;2023-08-12T05:22:53;101221.97;;;21.02;92.66
29535;BME280;72082;52.650;8.116;2023-08-12T05:25:19;101213.16;;;21.06;92.70
29535;BME280;72082;52.650;8.116;2023-08-12T05:27:44;101211.38;;;21.08;92.80
29535;BME280;72082;52.650;8.116;2023-08-12T05:30:09;101201.84;;;21.07;93.26
29535;BME280;72082;52.650;8.116;2023-08-12T05:32:35;101200.94;;;21.08;93.12
29535;BME280;72082;52.650;8.116;2023-08-12T05:35:00;101203.47;;;21.09;93.16
29535;BME280;72082;52.650;8.116;2023-08-12T05:37:25;101209.41;;;21.13;93.25
29535;BME280;72082;52.650;8.116;2023-08-12T05:39:50;101198.88;;;21.16;93.32
29535;BME280;72082;52.650;8.116;2023-08-12T05:42:16;101196.94;;;21.21;93.16
29535;BME280;72082;52.650;8.116;2023-08-12T05:44:41;101196.72;;;21.27;93.10
29535;BME280;72082;52.650;8.116;2023-08-12T05:47:07;101201.66;;;21.33;93.22
29535;BME280;72082;52.650;8.116;2023-08-12T05:49:32;101195.31;;;21.40;93.11
29535;BME280;72082;52.650;8.116;2023-08-12T05:51:57;101197.66;;;21.46;92.91
29535;BME280;72082;52.650;8.116;2023-08-12T05:54:22;101194.59;;;21.57;93.27
29535;BME280;72082;52.650;8.116;2023-08-12T05:56:47;101194.34;;;21.63;92.57
29535;BME280;72082;52.650;8.116;2023-08-12T05:59:13;101191.63;;;21.66;92.99
29535;BME280;72082;52.650;8.116;2023-08-12T06:01:38;101198.47;;;21.68;93.04
29535;BME280;72082;52.650;8.116;2023-08-12T06:04:03;101195.00;;;21.68;93.25
29535;BME280;72082;52.650;8.116;2023-08-12T06:06:28;101199.38;;;21.67;93.60
29535;BME280;72082;52.650;8.116;2023-08-12T06:08:54;101195.22;;;21.63;93.86
29535;BME280;72082;52.650;8.116;2023-08-12T06:11:19;101204.25;;;21.54;94.21
29535;BME280;72082;52.650;8.116;2023-08-12T06:13:44;101207.28;;;21.44;94.78
29535;BME280;72082;52.650;8.116;2023-08-12T06:16:09;101213.88;;;21.32;95.40
29535;BME280;72082;52.650;8.116;2023-08-12T06:18:34;101205.50;;;21.24;96.03
29535;BME280;72082;52.650;8.116;2023-08-12T06:21:00;101206.28;;;21.26;95.93
29535;BME280;72082;52.650;8.116;2023-08-12T06:23:25;101212.22;;;21.30;95.88
29535;BME280;72082;52.650;8.116;2023-08-12T06:25:50;101203.47;;;21.31;95.79
29535;BME280;72082;52.650;8.116;2023-08-12T06:28:15;101201.66;;;21.33;95.41
29535;BME280;72082;52.650;8.116;2023-08-12T06:30:44;101191.38;;;21.30;95.85
29535;BME280;72082;52.650;8.116;2023-08-12T06:33:10;101198.16;;;21.34;95.92
29535;BME280;72082;52.650;8.116;2023-08-12T06:35:35;101186.63;;;21.39;95.75
29535;BME280;72082;52.650;8.116;2023-08-12T06:38:00;101188.91;;;21.47;95.46
29535;BME280;72082;52.650;8.116;2023-08-12T06:40:25;101181.69;;;21.53;95.52
29535;BME280;72082;52.650;8.116;2023-08-12T06:42:51;101181.44;;;21.60;95.18
29535;BME280;72082;52.650;8.116;2023-08-12T06:45:16;101183.91;;;21.63;95.05
29535;BME280;72082;52.650;8.116;2023-08-12T06:47:41;101179.44;;;21.66;95.05
29535;BME280;72082;52.650;8.116;2023-08-12T06:50:08;101168.84;;;21.69;95.38
29535;BME280;72082;52.650;8.116;2023-08-12T06:52:33;101180.78;;;21.75;95.04
29535;BME280;72082;52.650;8.116;2023-08-12T06:54:58;101172.56;;;21.84;95.33
29535;BME280;72082;52.650;8.116;2023-08-12T06:57:23;101176.44;;;21.95;95.06
29535;BME280;72082;52.650;8.116;2023-08-12T06:59:48;101168.88;;;22.09;94.95
29535;BME280;72082;52.650;8.116;2023-08-12T07:02:14;101167.50;;;22.21;94.61
29535;BME280;72082;52.650;8.116;2023-08-12T07:04:39;101162.69;;;22.31;94.42
29535;BME280;72082;52.650;8.116;2023-08-12T07:07:04;101157.13;;;22.38;94.37
29535;BME280;72082;52.650;8.116;2023-08-12T07:09:29;101159.53;;;22.43;94.44
29535;BME280;72082;52.650;8.116;2023-08-12T07:11:55;101160.47;;;22.42;94.83
29535;BME280;72082;52.650;8.116;2023-08-12T07:14:20;101155.28;;;22.40;95.06
29535;BME280;72082;52.650;8.116;2023-08-12T07:16:45;101152.63;;;22.42;95.20
29535;BME280;72082;52.650;8.116;2023-08-12T07:19:10;101143.94;;;22.41;95.39
29535;BME280;72082;52.650;8.116;2023-08-12T07:21:35;101149.03;;;22.44;95.67
29535;BME280;72082;52.650;8.116;2023-08-12T07:24:01;101143.66;;;22.47;95.07
29535;BME280;72082;52.650;8.116;2023-08-12T07:26:26;101148.16;;;22.44;95.64
29535;BME280;72082;52.650;8.116;2023-08-12T07:28:51;101147.41;;;22.42;96.17
29535;BME280;72082;52.650;8.116;2023-08-12T07:31:17;101151.69;;;22.43;96.25
29535;BME280;72082;52.650;8.116;2023-08-12T07:33:42;101156.78;;;22.46;96.50
29535;BME280;72082;52.650;8.116;2023-08-12T07:36:07;101152.19;;;22.51;96.58
29535;BME280;72082;52.650;8.116;2023-08-12T07:38:33;101160.78;;;22.53;96.25
29535;BME280;72082;52.650;8.116;2023-08-12T07:40:58;101160.88;;;22.51;96.52
29535;BME280;72082;52.650;8.116;2023-08-12T07:43:23;101160.16;;;22.48;96.65
29535;BME280;72082;52.650;8.116;2023-08-12T07:45:52;101161.28;;;22.42;97.03
29535;BME280;72082;52.650;8.116;2023-08-12T07:48:17;101167.50;;;22.40;97.34
29535;BME280;72082;52.650;8.116;2023-08-12T07:50:43;101162.28;;;22.40;97.26
29535;BME280;72082;52.650;8.116;2023-08-12T07:53:08;101166.81;;;22.36;97.22
29535;BME280;72082;52.650;8.116;2023-08-12T07:55:34;101153.78;;;22.35;97.46
29535;BME280;72082;52.650;8.116;2023-08-12T07:57:59;101155.50;;;22.36;97.64
29535;BME280;72082;52.650;8.116;2023-08-12T08:00:25;101149.38;;;22.37;97.66
29535;BME280;72082;52.650;8.116;2023-08-12T08:02:50;101151.06;;;22.38;97.61
29535;BME280;72082;52.650;8.116;2023-08-12T08:05:15;101152.03;;;22.35;97.66
29535;BME280;72082;52.650;8.116;2023-08-12T08:07:40;101149.00;;;22.26;97.81
29535;BME280;72082;52.650;8.116;2023-08-12T08:10:06;101156.19;;;22.21;98.34
29535;BME280;72082;52.650;8.116;2023-08-12T08:12:31;101159.00;;;22.16;98.48
29535;BME280;72082;52.650;8.116;2023-08-12T08:14:56;101162.88;;;22.07;98.74
29535;BME280;72082;52.650;8.116;2023-08-12T08:17:22;101158.78;;;22.02;99.48
29535;BME280;72082;52.650;8.116;2023-08-12T08:19:47;101163.09;;;22.03;98.63
29535;BME280;72082;52.650;8.116;2023-08-12T08:22:12;101168.34;;;22.01;98.77
29535;BME280;72082;52.650;8.116;2023-08-12T08:24:37;101159.16;;;21.93;99.22
29535;BME280;72082;52.650;8.116;2023-08-12T08:27:03;101175.09;;;21.85;99.62
29535;BME280;72082;52.650;8.116;2023-08-12T08:29:28;101163.06;;;21.63;99.90
29535;BME280;72082;52.650;8.116;2023-08-12T08:31:53;101161.56;;;21.35;100.00
29535;BME280;72082;52.650;8.116;2023-08-12T08:34:18;101154.50;;;21.17;100.00
29535;BME280;72082;52.650;8.116;2023-08-12T08:36:44;101161.03;;;21.06;100.00
29535;BME280;72082;52.650;8.116;2023-08-12T08:39:09;101145.75;;;20.97;100.00
29535;BME280;72082;52.650;8.116;2023-08-12T08:41:38;101131.16;;;20.92;100.00
29535;BME280;72082;52.650;8.116;2023-08-12T08:44:08;101130.28;;;20.92;100.00
29535;BME280;72082;52.650;8.116;2023-08-12T08:46:34;101129.50;;;20.90;100.00
29535;BME280;72082;52.650;8.116;2023-08-12T08:48:59;101127.09;;;20.85;100.00
29535;BME280;72082;52.650;8.116;2023-08-12T08:51:25;101126.28;;;20.83;100.00
29535;BME280;72082;52.650;8.116;2023-08-12T08:53:53;101128.00;;;20.84;100.00
29535;BME280;72082;52.650;8.116;2023-08-12T08:56:20;101119.22;;;20.87;100.00
29535;BME280;72082;52.650;8.116;2023-08-12T08:58:46;101115.63;;;20.89;100.00
29535;BME280;72082;52.650;8.116;2023-08-12T09:01:12;101110.22;;;20.94;100.00
29535;BME280;72082;52.650;8.116;2023-08-12T09:03:39;101117.72;;;21.02;100.00
29535;BME280;72082;52.650;8.116;2023-08-12T09:06:05;101111.47;;;21.07;100.00
29535;BME280;72082;52.650;8.116;2023-08-12T09:08:33;101089.47;;;21.14;100.00
29535;BME280;72082;52.650;8.116;2023-08-12T09:11:02;101087.56;;;21.18;100.00
29535;BME280;72082;52.650;8.116;2023-08-12T09:13:28;101087.84;;;21.12;100.00
29535;BME280;72082;52.650;8.116;2023-08-12T09:15:54;101082.75;;;21.09;100.00
29535;BME280;72082;52.650;8.116;2023-08-12T09:18:20;101081.81;;;21.10;100.00
29535;BME280;72082;52.650;8.116;2023-08-12T09:20:45;101087.00;;;21.11;100.00
29535;BME280;72082;52.650;8.116;2023-08-12T09:23:11;101080.81;;;21.14;100.00
29535;BME280;72082;52.650;8.116;2023-08-12T09:25:43;101071.22;;;21.14;100.00
29535;BME280;72082;52.650;8.116;2023-08-12T09:28:09;101073.03;;;21.12;100.00
29535;BME280;72082;52.650;8.116;2023-08-12T09:30:34;101073.97;;;21.11;100.00
29535;BME280;72082;52.650;8.116;2023-08-12T09:33:01;101062.72;;;21.09;100.00
29535;BME280;72082;52.650;8.116;2023-08-12T09:35:41;101063.69;;;21.07;100.00
29535;BME280;72082;52.650;8.116;2023-08-12T09:38:13;101056.91;;;21.03;100.00
29535;BME280;72082;52.650;8.116;2023-08-12T09:40:39;101043.09;;;21.01;100.00
29535;BME280;72082;52.650;8.116;2023-08-12T09:43:04;101041.34;;;21.01;100.00
29535;BME280;72082;52.650;8.116;2023-08-12T09:45:31;101050.66;;;21.07;100.00
29535;BME280;72082;52.650;8.116;2023-08-12T09:47:57;101067.13;;;21.09;100.00
29535;BME280;72082;52.650;8.116;2023-08-12T09:50:23;101078.72;;;21.00;100.00
29535;BME280;72082;52.650;8.116;2023-08-12T09:52:52;101089.75;;;20.85;100.00
29535;BME280;72082;52.650;8.116;2023-08-12T09:55:20;101086.72;;;20.74;100.00
29535;BME280;72082;52.650;8.116;2023-08-12T09:57:53;101075.75;;;20.66;100.00
29535;BME280;72082;52.650;8.116;2023-08-12T10:00:20;101068.88;;;20.65;100.00
29535;BME280;72082;52.650;8.116;2023-08-12T10:02:49;101080.06;;;20.67;100.00
29535;BME280;72082;52.650;8.116;2023-08-12T10:05:24;101077.28;;;20.71;100.00
29535;BME280;72082;52.650;8.116;2023-08-12T10:07:55;101069.16;;;20.79;100.00
29535;BME280;72082;52.650;8.116;2023-08-12T10:10:22;101074.31;;;20.80;100.00
29535;BME280;72082;52.650;8.116;2023-08-12T10:12:47;101068.66;;;20.91;100.00
29535;BME280;72082;52.650;8.116;2023-08-12T10:15:14;101067.00;;;21.12;100.00
29535;BME280;72082;52.650;8.116;2023-08-12T10:17:40;101063.63;;;21.30;100.00
29535;BME280;72082;52.650;8.116;2023-08-12T10:20:19;101062.75;;;21.49;100.00
29535;BME280;72082;52.650;8.116;2023-08-12T10:22:46;101055.75;;;21.70;100.00
29535;BME280;72082;52.650;8.116;2023-08-12T10:25:13;101057.69;;;21.85;100.00
29535;BME280;72082;52.650;8.116;2023-08-12T10:27:39;101048.72;;;21.92;100.00
29535;BME280;72082;52.650;8.116;2023-08-12T10:30:08;101054.50;;;21.99;100.00
29535;BME280;72082;52.650;8.116;2023-08-12T10:32:33;101047.44;;;22.01;100.00
29535;BME280;72082;52.650;8.116;2023-08-12T10:35:00;101044.91;;;21.99;100.00
29535;BME280;72082;52.650;8.116;2023-08-12T10:37:26;101043.53;;;21.91;100.00
29535;BME280;72082;52.650;8.116;2023-08-12T10:39:55;101041.38;;;21.80;100.00
29535;BME280;72082;52.650;8.116;2023-08-12T10:42:44;101039.00;;;21.76;100.00
29535;BME280;72082;52.650;8.116;2023-08-12T10:45:14;101048.53;;;21.77;100.00
29535;BME280;72082;52.650;8.116;2023-08-12T10:48:15;101043.94;;;21.82;100.00
29535;BME280;72082;52.650;8.116;2023-08-12T10:50:45;101040.72;;;21.95;100.00
29535;BME280;72082;52.650;8.116;2023-08-12T10:53:27;101028.53;;;22.14;100.00
29535;BME280;72082;52.650;8.116;2023-08-12T10:56:05;101031.06;;;22.35;100.00
29535;BME280;72082;52.650;8.116;2023-08-12T10:58:47;101029.50;;;22.49;100.00
29535;BME280;72082;52.650;8.116;2023-08-12T11:01:21;101034.41;;;22.55;100.00
29535;BME280;72082;52.650;8.116;2023-08-12T11:03:48;101033.78;;;22.50;100.00
29535;BME280;72082;52.650;8.116;2023-08-12T11:06:14;101038.59;;;22.41;100.00
29535;BME280;72082;52.650;8.116;2023-08-12T11:08:47;101026.69;;;22.35;100.00
29535;BME280;72082;52.650;8.116;2023-08-12T11:11:23;101023.06;;;22.38;100.00
29535;BME280;72082;52.650;8.116;2023-08-12T11:13:57;101026.88;;;22.49;100.00
29535;BME280;72082;52.650;8.116;2023-08-12T11:16:37;101024.75;;;22.57;100.00
29535;BME280;72082;52.650;8.116;2023-08-12T11:19:03;101022.97;;;22.58;100.00
29535;BME280;72082;52.650;8.116;2023-08-12T11:21:30;101020.03;;;22.47;100.00
29535;BME280;72082;52.650;8.116;2023-08-12T11:23:55;101023.06;;;22.38;100.00
29535;BME280;72082;52.650;8.116;2023-08-12T11:26:24;101007.41;;;22.38;100.00
29535;BME280;72082;52.650;8.116;2023-08-12T11:28:50;101015.44;;;22.52;100.00
29535;BME280;72082;52.650;8.116;2023-08-12T11:31:16;101007.88;;;22.64;100.00
29535;BME280;72082;52.650;8.116;2023-08-12T11:33:42;101016.81;;;22.59;100.00
29535;BME280;72082;52.650;8.116;2023-08-12T11:36:08;101012.34;;;22.44;100.00
29535;BME280;72082;52.650;8.116;2023-08-12T11:38:34;100998.72;;;22.37;100.00
29535;BME280;72082;52.650;8.116;2023-08-12T11:41:02;100998.47;;;22.25;100.00
29535;BME280;72082;52.650;8.116;2023-08-12T11:43:27;101003.31;;;22.13;100.00
29535;BME280;72082;52.650;8.116;2023-08-12T11:45:55;100999.09;;;22.11;100.00
29535;BME280;72082;52.650;8.116;2023-08-12T11:48:23;100992.69;;;21.99;100.00
29535;BME280;72082;52.650;8.116;2023-08-12T11:50:48;100996.16;;;22.00;100.00
29535;BME280;72082;52.650;8.116;2023-08-12T11:53:14;100988.25;;;22.01;100.00
29535;BME280;72082;52.650;8.116;2023-08-12T11:55:39;100984.72;;;22.02;100.00
29535;BME280;72082;52.650;8.116;2023-08-12T11:58:05;100997.69;;;22.04;100.00
29535;BME280;72082;52.650;8.116;2023-08-12T12:00:30;100985.63;;;22.01;100.00
29535;BME280;72082;52.650;8.116;2023-08-12T12:02:56;100979.66;;;21.99;100.00
29535;BME280;72082;52.650;8.116;2023-08-12T12:05:30;100984.78;;;22.01;100.00
29535;BME280;72082;52.650;8.116;2023-08-12T12:07:55;100986.28;;;22.06;100.00
29535;BME280;72082;52.650;8.116;2023-08-12T12:10:28;100984.72;;;22.21;100.00
29535;BME280;72082;52.650;8.116;2023-08-12T12:12:57;100982.41;;;22.32;100.00
29535;BME280;72082;52.650;8.116;2023-08-12T12:15:23;100979.44;;;22.40;100.00
29535;BME280;72082;52.650;8.116;2023-08-12T12:17:50;100973.22;;;22.42;100.00
29535;BME280;72082;52.650;8.116;2023-08-12T12:20:15;100985.75;;;22.36;100.00
29535;BME280;72082;52.650;8.116;2023-08-12T12:22:42;100973.75;;;22.32;100.00
29535;BME280;72082;52.650;8.116;2023-08-12T12:25:09;100978.34;;;22.27;100.00
29535;BME280;72082;52.650;8.116;2023-08-12T12:27:36;100973.13;;;22.27;100.00
29535;BME280;72082;52.650;8.116;2023-08-12T12:30:02;100979.81;;;22.32;100.00
29535;BME280;72082;52.650;8.116;2023-08-12T12:32:27;100971.25;;;22.47;100.00
29535;BME280;72082;52.650;8.116;2023-08-12T12:34:53;100975.03;;;22.59;100.00
29535;BME280;72082;52.650;8.116;2023-08-12T12:37:18;100970.94;;;22.72;100.00
29535;BME280;72082;52.650;8.116;2023-08-12T12:39:44;100971.09;;;22.86;100.00
29535;BME280;72082;52.650;8.116;2023-08-12T12:42:10;100962.84;;;23.11;100.00
29535;BME280;72082;52.650;8.116;2023-08-12T12:44:35;100973.16;;;23.79;100.00